WZZ8L LQTZ-EDJA
Flight info
| Callsign | WZZ8L |
|---|---|
| Flight time | 1h 8m |
| Altitude | 36000 |
| Route | DER DCT GUBOK DCT MOSAV DCT ERKIR L608 KPT KPT1D |
| Aircraft | A320/M-SDE3FGHIRWY/LB1 |
Departure
| Time | 2026-04-25 08:22 |
|---|---|
| Airport | Tuzla International Airport (LQTZ) |
Arrival
| Time | 2026-04-25 09:30 |
|---|---|
| Airport | Memmingen Allgau Airport (EDJA) |
| Time | Latitude | Longitude | Altitude | Speed | Heading |
|---|---|---|---|---|---|
| 2026-04-25 07:43 | 44.46324 | 18.71048 | 780 ft | 0 kts | 260° |
| 2026-04-25 08:16 | 44.46323 | 18.71040 | 780 ft | 2 kts | 252° |
| 2026-04-25 08:17 | 44.46277 | 18.70992 | 780 ft | 12 kts | 208° |
| 2026-04-25 08:17 | 44.46194 | 18.70946 | 779 ft | 14 kts | 189° |
| 2026-04-25 08:17 | 44.46086 | 18.70927 | 779 ft | 17 kts | 186° |
| 2026-04-25 08:17 | 44.45984 | 18.70993 | 779 ft | 18 kts | 107° |
| 2026-04-25 08:18 | 44.45963 | 18.71225 | 778 ft | 35 kts | 96° |
| 2026-04-25 08:18 | 44.45936 | 18.71582 | 783 ft | 37 kts | 96° |
| 2026-04-25 08:18 | 44.45909 | 18.71941 | 786 ft | 37 kts | 96° |
| 2026-04-25 08:18 | 44.45877 | 18.72303 | 787 ft | 38 kts | 96° |
| 2026-04-25 08:19 | 44.45848 | 18.72673 | 788 ft | 38 kts | 96° |
| 2026-04-25 08:19 | 44.45820 | 18.73049 | 789 ft | 39 kts | 96° |
| 2026-04-25 08:19 | 44.45790 | 18.73424 | 790 ft | 38 kts | 97° |
| 2026-04-25 08:19 | 44.45761 | 18.73768 | 793 ft | 29 kts | 96° |
| 2026-04-25 08:20 | 44.45747 | 18.74008 | 793 ft | 5 kts | 64° |
| 2026-04-25 08:20 | 44.45749 | 18.74030 | 793 ft | 1 kts | 167° |
| 2026-04-25 08:20 | 44.45741 | 18.74012 | 793 ft | 2 kts | 265° |
| 2026-04-25 08:20 | 44.45743 | 18.74001 | 792 ft | 0 kts | 277° |
| 2026-04-25 08:21 | 44.45750 | 18.73926 | 792 ft | 35 kts | 276° |
| 2026-04-25 08:21 | 44.45804 | 18.73231 | 791 ft | 104 kts | 276° |
| 2026-04-25 08:21 | 44.45900 | 18.71966 | 788 ft | 154 kts | 276° |
| 2026-04-25 08:21 | 44.46008 | 18.70435 | 1323 ft | 158 kts | 276° |
| 2026-04-25 08:22 | 44.46124 | 18.68901 | 1983 ft | 161 kts | 276° |
| 2026-04-25 08:22 | 44.46258 | 18.67249 | 2340 ft | 182 kts | 276° |
| 2026-04-25 08:22 | 44.46409 | 18.65376 | 2692 ft | 204 kts | 276° |
| 2026-04-25 08:22 | 44.46577 | 18.63284 | 3025 ft | 229 kts | 276° |
| 2026-04-25 08:23 | 44.46762 | 18.60942 | 3564 ft | 252 kts | 276° |
| 2026-04-25 08:23 | 44.46995 | 18.58466 | 4387 ft | 260 kts | 284° |
| 2026-04-25 08:23 | 44.47810 | 18.56244 | 5297 ft | 263 kts | 309° |
| 2026-04-25 08:23 | 44.49097 | 18.54368 | 6265 ft | 265 kts | 319° |
| 2026-04-25 08:24 | 44.50479 | 18.52711 | 7187 ft | 266 kts | 321° |
| 2026-04-25 08:24 | 44.51912 | 18.51045 | 8075 ft | 269 kts | 321° |
| 2026-04-25 08:24 | 44.53346 | 18.49329 | 8961 ft | 273 kts | 320° |
| 2026-04-25 08:24 | 44.54777 | 18.47546 | 9860 ft | 277 kts | 319° |
| 2026-04-25 08:25 | 44.56211 | 18.45697 | 10467 ft | 289 kts | 318° |
| 2026-04-25 08:25 | 44.57736 | 18.43678 | 10746 ft | 311 kts | 317° |
| 2026-04-25 08:25 | 44.59323 | 18.41537 | 11328 ft | 319 kts | 317° |
| 2026-04-25 08:25 | 44.61025 | 18.39507 | 12039 ft | 323 kts | 322° |
| 2026-04-25 08:26 | 44.62779 | 18.37517 | 12783 ft | 326 kts | 322° |
| 2026-04-25 08:26 | 44.64553 | 18.35505 | 13512 ft | 330 kts | 322° |
| 2026-04-25 08:26 | 44.66325 | 18.33502 | 14193 ft | 333 kts | 322° |
| 2026-04-25 08:26 | 44.68142 | 18.31446 | 14812 ft | 337 kts | 322° |
| 2026-04-25 08:27 | 44.69983 | 18.29363 | 15395 ft | 342 kts | 322° |
| 2026-04-25 08:27 | 44.71844 | 18.27256 | 16005 ft | 345 kts | 322° |
| 2026-04-25 08:27 | 44.73722 | 18.25126 | 16623 ft | 348 kts | 322° |
| 2026-04-25 08:27 | 44.75612 | 18.22979 | 17225 ft | 352 kts | 321° |
| 2026-04-25 08:28 | 44.77529 | 18.20800 | 17850 ft | 355 kts | 321° |
| 2026-04-25 08:28 | 44.79459 | 18.18605 | 18449 ft | 359 kts | 321° |
| 2026-04-25 08:28 | 44.81409 | 18.16388 | 18987 ft | 362 kts | 321° |
| 2026-04-25 08:28 | 44.83377 | 18.14149 | 19540 ft | 365 kts | 321° |
| 2026-04-25 08:29 | 44.85358 | 18.11897 | 20098 ft | 368 kts | 321° |
| 2026-04-25 08:29 | 44.87358 | 18.09622 | 20654 ft | 371 kts | 321° |
| 2026-04-25 08:29 | 44.89371 | 18.07322 | 21180 ft | 374 kts | 321° |
| 2026-04-25 08:29 | 44.91403 | 18.04994 | 21696 ft | 377 kts | 321° |
| 2026-04-25 08:30 | 44.93447 | 18.02646 | 22203 ft | 379 kts | 321° |
| 2026-04-25 08:30 | 44.95504 | 18.00285 | 22737 ft | 381 kts | 321° |
| 2026-04-25 08:30 | 44.96868 | 17.98720 | 23079 ft | 383 kts | 321° |
| 2026-04-25 08:30 | 44.98830 | 17.96156 | 23565 ft | 386 kts | 312° |
| 2026-04-25 08:31 | 45.00534 | 17.93201 | 23988 ft | 389 kts | 309° |
| 2026-04-25 08:31 | 45.02772 | 17.89207 | 24552 ft | 392 kts | 309° |
| 2026-04-25 08:31 | 45.03916 | 17.87166 | 24833 ft | 394 kts | 309° |
| 2026-04-25 08:31 | 45.06186 | 17.83124 | 25368 ft | 397 kts | 309° |
| 2026-04-25 08:32 | 45.07348 | 17.81057 | 25638 ft | 399 kts | 309° |
| 2026-04-25 08:32 | 45.09647 | 17.76971 | 26196 ft | 402 kts | 309° |
| 2026-04-25 08:32 | 45.10801 | 17.74916 | 26472 ft | 403 kts | 309° |
| 2026-04-25 08:32 | 45.12547 | 17.71799 | 26880 ft | 405 kts | 309° |
| 2026-04-25 08:33 | 45.14299 | 17.68662 | 27293 ft | 407 kts | 308° |
| 2026-04-25 08:33 | 45.16059 | 17.65507 | 27687 ft | 409 kts | 309° |
| 2026-04-25 08:33 | 45.17825 | 17.62344 | 28094 ft | 411 kts | 309° |
| 2026-04-25 08:33 | 45.19604 | 17.59157 | 28490 ft | 413 kts | 309° |
| 2026-04-25 08:34 | 45.21387 | 17.55951 | 28918 ft | 415 kts | 308° |
| 2026-04-25 08:34 | 45.23175 | 17.52729 | 29333 ft | 417 kts | 308° |
| 2026-04-25 08:34 | 45.24970 | 17.49490 | 29738 ft | 419 kts | 308° |
| 2026-04-25 08:34 | 45.26773 | 17.46231 | 30136 ft | 421 kts | 308° |
| 2026-04-25 08:35 | 45.28586 | 17.42956 | 30478 ft | 423 kts | 308° |
| 2026-04-25 08:35 | 45.30407 | 17.39664 | 30812 ft | 425 kts | 308° |
| 2026-04-25 08:35 | 45.32237 | 17.36358 | 31145 ft | 426 kts | 308° |
| 2026-04-25 08:35 | 45.34074 | 17.33038 | 31498 ft | 427 kts | 308° |
| 2026-04-25 08:36 | 45.35906 | 17.29724 | 31984 ft | 425 kts | 308° |
| 2026-04-25 08:36 | 45.37728 | 17.26423 | 32475 ft | 423 kts | 308° |
| 2026-04-25 08:36 | 45.39541 | 17.23128 | 32943 ft | 422 kts | 308° |
| 2026-04-25 08:36 | 45.41346 | 17.19840 | 33431 ft | 421 kts | 308° |
| 2026-04-25 08:37 | 45.43143 | 17.16563 | 33923 ft | 419 kts | 308° |
| 2026-04-25 08:37 | 45.44928 | 17.13304 | 34376 ft | 417 kts | 308° |
| 2026-04-25 08:37 | 45.46714 | 17.10041 | 34781 ft | 416 kts | 308° |
| 2026-04-25 08:37 | 45.48487 | 17.06802 | 35163 ft | 415 kts | 308° |
| 2026-04-25 08:38 | 45.50263 | 17.03554 | 35535 ft | 414 kts | 308° |
| 2026-04-25 08:38 | 45.52030 | 17.00317 | 35891 ft | 413 kts | 308° |
| 2026-04-25 08:38 | 45.53795 | 16.97080 | 36063 ft | 413 kts | 308° |
| 2026-04-25 08:39 | 45.57118 | 16.90429 | 36104 ft | 411 kts | 302° |
| 2026-04-25 08:39 | 45.60143 | 16.83509 | 36100 ft | 411 kts | 302° |
| 2026-04-25 08:40 | 45.63164 | 16.76582 | 36101 ft | 411 kts | 302° |
| 2026-04-25 08:40 | 45.66162 | 16.69699 | 36102 ft | 410 kts | 302° |
| 2026-04-25 08:41 | 45.69176 | 16.62764 | 36099 ft | 411 kts | 302° |
| 2026-04-25 08:41 | 45.72194 | 16.55812 | 36102 ft | 412 kts | 302° |
| 2026-04-25 08:42 | 45.75211 | 16.48836 | 36098 ft | 412 kts | 302° |
| 2026-04-25 08:42 | 45.78230 | 16.41847 | 36132 ft | 412 kts | 302° |
| 2026-04-25 08:43 | 45.81242 | 16.34861 | 36122 ft | 412 kts | 301° |
| 2026-04-25 08:43 | 45.84239 | 16.27879 | 36126 ft | 411 kts | 301° |
| 2026-04-25 08:44 | 45.87231 | 16.20884 | 36127 ft | 411 kts | 301° |
| 2026-04-25 08:44 | 45.90219 | 16.13873 | 36127 ft | 411 kts | 301° |
| 2026-04-25 08:45 | 45.93202 | 16.06868 | 36107 ft | 411 kts | 301° |
| 2026-04-25 08:45 | 45.96187 | 15.99858 | 36125 ft | 411 kts | 301° |
| 2026-04-25 08:46 | 45.99142 | 15.92882 | 36096 ft | 411 kts | 301° |
| 2026-04-25 08:46 | 46.02118 | 15.85845 | 36106 ft | 411 kts | 301° |
| 2026-04-25 08:47 | 46.05088 | 15.78808 | 36089 ft | 411 kts | 301° |
| 2026-04-25 08:47 | 46.08054 | 15.71762 | 36103 ft | 411 kts | 301° |
| 2026-04-25 08:48 | 46.11013 | 15.64707 | 36115 ft | 411 kts | 300° |
| 2026-04-25 08:48 | 46.13956 | 15.57657 | 36109 ft | 410 kts | 300° |
| 2026-04-25 08:49 | 46.16894 | 15.50614 | 36111 ft | 409 kts | 300° |
| 2026-04-25 08:49 | 46.19826 | 15.43574 | 36102 ft | 409 kts | 300° |
| 2026-04-25 08:50 | 46.22755 | 15.36528 | 36108 ft | 408 kts | 300° |
| 2026-04-25 08:50 | 46.25650 | 15.29542 | 36100 ft | 408 kts | 300° |
| 2026-04-25 08:51 | 46.28563 | 15.22486 | 36090 ft | 408 kts | 300° |
| 2026-04-25 08:51 | 46.31467 | 15.15429 | 36093 ft | 408 kts | 300° |
| 2026-04-25 08:52 | 46.34370 | 15.08365 | 36097 ft | 408 kts | 300° |
| 2026-04-25 08:52 | 46.37257 | 15.01338 | 36094 ft | 408 kts | 300° |
| 2026-04-25 08:53 | 46.40154 | 14.94264 | 36107 ft | 408 kts | 299° |
| 2026-04-25 08:53 | 46.43049 | 14.87187 | 36122 ft | 407 kts | 299° |
| 2026-04-25 08:54 | 46.45922 | 14.80121 | 36106 ft | 407 kts | 299° |
| 2026-04-25 08:54 | 46.48786 | 14.73050 | 36115 ft | 406 kts | 299° |
| 2026-04-25 08:55 | 46.51652 | 14.65980 | 36119 ft | 406 kts | 299° |
| 2026-04-25 08:55 | 46.54511 | 14.58900 | 36115 ft | 406 kts | 299° |
| 2026-04-25 08:56 | 46.57369 | 14.51816 | 36121 ft | 406 kts | 299° |
| 2026-04-25 08:56 | 46.60216 | 14.44731 | 36118 ft | 406 kts | 298° |
| 2026-04-25 08:57 | 46.63062 | 14.37632 | 36123 ft | 406 kts | 298° |
| 2026-04-25 08:57 | 46.65907 | 14.30525 | 36120 ft | 406 kts | 298° |
| 2026-04-25 08:58 | 46.68747 | 14.23404 | 36123 ft | 407 kts | 298° |
| 2026-04-25 08:58 | 46.71564 | 14.16310 | 36131 ft | 406 kts | 298° |
| 2026-04-25 08:59 | 46.74385 | 14.09183 | 36129 ft | 406 kts | 298° |
| 2026-04-25 08:59 | 46.77206 | 14.02050 | 36123 ft | 405 kts | 298° |
| 2026-04-25 09:00 | 46.80020 | 13.94908 | 36124 ft | 405 kts | 298° |
| 2026-04-25 09:00 | 46.82816 | 13.87813 | 36130 ft | 405 kts | 297° |
| 2026-04-25 09:01 | 46.85615 | 13.80683 | 36117 ft | 405 kts | 297° |
| 2026-04-25 09:01 | 46.88411 | 13.73540 | 36119 ft | 405 kts | 297° |
| 2026-04-25 09:02 | 46.91206 | 13.66392 | 36114 ft | 405 kts | 297° |
| 2026-04-25 09:02 | 46.93989 | 13.59234 | 36118 ft | 405 kts | 297° |
| 2026-04-25 09:03 | 46.96765 | 13.52061 | 36106 ft | 405 kts | 297° |
| 2026-04-25 09:03 | 46.99548 | 13.44883 | 36111 ft | 405 kts | 297° |
| 2026-04-25 09:04 | 47.02322 | 13.37714 | 36136 ft | 404 kts | 297° |
| 2026-04-25 09:04 | 47.05089 | 13.30545 | 36135 ft | 404 kts | 297° |
| 2026-04-25 09:05 | 47.07856 | 13.23351 | 36130 ft | 404 kts | 297° |
| 2026-04-25 09:05 | 47.10613 | 13.16153 | 36122 ft | 404 kts | 297° |
| 2026-04-25 09:06 | 47.13346 | 13.09006 | 36125 ft | 404 kts | 297° |
| 2026-04-25 09:06 | 47.16096 | 13.01794 | 36129 ft | 404 kts | 296° |
| 2026-04-25 09:07 | 47.18837 | 12.94558 | 36134 ft | 405 kts | 296° |
| 2026-04-25 09:07 | 47.21577 | 12.87329 | 36132 ft | 405 kts | 296° |
| 2026-04-25 09:08 | 47.24313 | 12.80092 | 36124 ft | 404 kts | 296° |
| 2026-04-25 09:08 | 47.27045 | 12.72853 | 36125 ft | 405 kts | 296° |
| 2026-04-25 09:09 | 47.29775 | 12.65601 | 36130 ft | 405 kts | 296° |
| 2026-04-25 09:09 | 47.32498 | 12.58335 | 36142 ft | 405 kts | 296° |
| 2026-04-25 09:10 | 47.35216 | 12.51063 | 36141 ft | 405 kts | 296° |
| 2026-04-25 09:10 | 47.37914 | 12.43813 | 36138 ft | 405 kts | 296° |
| 2026-04-25 09:11 | 47.41987 | 12.32864 | 36142 ft | 406 kts | 296° |
| 2026-04-25 09:11 | 47.44696 | 12.25556 | 36141 ft | 405 kts | 296° |
| 2026-04-25 09:12 | 47.47406 | 12.18241 | 36139 ft | 405 kts | 296° |
| 2026-04-25 09:12 | 47.49969 | 12.10793 | 35661 ft | 409 kts | 293° |
| 2026-04-25 09:13 | 47.51187 | 12.06987 | 35041 ft | 410 kts | 292° |
| 2026-04-25 09:13 | 47.52376 | 12.03203 | 34442 ft | 410 kts | 292° |
| 2026-04-25 09:13 | 47.53580 | 11.99369 | 33801 ft | 411 kts | 292° |
| 2026-04-25 09:13 | 47.54795 | 11.95539 | 33127 ft | 411 kts | 293° |
| 2026-04-25 09:14 | 47.56022 | 11.91699 | 32461 ft | 412 kts | 293° |
| 2026-04-25 09:14 | 47.57255 | 11.87868 | 31813 ft | 412 kts | 293° |
| 2026-04-25 09:14 | 47.58492 | 11.84045 | 31184 ft | 411 kts | 293° |
| 2026-04-25 09:14 | 47.59726 | 11.80226 | 30553 ft | 411 kts | 293° |
| 2026-04-25 09:15 | 47.60958 | 11.76403 | 29756 ft | 413 kts | 293° |
| 2026-04-25 09:15 | 47.62194 | 11.72549 | 28926 ft | 415 kts | 293° |
| 2026-04-25 09:15 | 47.63435 | 11.68671 | 28120 ft | 416 kts | 293° |
| 2026-04-25 09:15 | 47.64674 | 11.64802 | 27429 ft | 414 kts | 293° |
| 2026-04-25 09:16 | 47.65904 | 11.60951 | 26777 ft | 412 kts | 293° |
| 2026-04-25 09:16 | 47.67122 | 11.57127 | 26149 ft | 410 kts | 293° |
| 2026-04-25 09:16 | 47.68336 | 11.53307 | 25531 ft | 407 kts | 293° |
| 2026-04-25 09:16 | 47.69541 | 11.49510 | 24927 ft | 405 kts | 293° |
| 2026-04-25 09:17 | 47.71922 | 11.41981 | 23758 ft | 400 kts | 293° |
| 2026-04-25 09:17 | 47.73100 | 11.38246 | 23088 ft | 399 kts | 293° |
| 2026-04-25 09:17 | 47.74276 | 11.34524 | 22416 ft | 397 kts | 293° |
| 2026-04-25 09:18 | 47.75447 | 11.30817 | 21755 ft | 395 kts | 293° |
| 2026-04-25 09:18 | 47.76611 | 11.27125 | 21114 ft | 393 kts | 293° |
| 2026-04-25 09:18 | 47.77752 | 11.23498 | 20498 ft | 392 kts | 293° |
| 2026-04-25 09:18 | 47.78896 | 11.19866 | 20187 ft | 382 kts | 293° |
| 2026-04-25 09:19 | 47.79998 | 11.16357 | 20109 ft | 366 kts | 293° |
| 2026-04-25 09:19 | 47.81049 | 11.13010 | 20134 ft | 348 kts | 293° |
| 2026-04-25 09:19 | 47.81730 | 11.10835 | 20123 ft | 337 kts | 293° |
| 2026-04-25 09:19 | 47.83019 | 11.06703 | 19710 ft | 332 kts | 293° |
| 2026-04-25 09:20 | 47.83984 | 11.03599 | 19063 ft | 327 kts | 293° |
| 2026-04-25 09:20 | 47.84931 | 11.00543 | 18383 ft | 324 kts | 292° |
| 2026-04-25 09:20 | 47.85567 | 10.98490 | 17845 ft | 322 kts | 293° |
| 2026-04-25 09:20 | 47.86499 | 10.95482 | 17054 ft | 319 kts | 293° |
| 2026-04-25 09:21 | 47.87420 | 10.92519 | 16295 ft | 319 kts | 294° |
| 2026-04-25 09:21 | 47.88366 | 10.89472 | 15533 ft | 320 kts | 294° |
| 2026-04-25 09:21 | 47.89290 | 10.86494 | 14804 ft | 321 kts | 294° |
| 2026-04-25 09:21 | 47.90238 | 10.83436 | 14090 ft | 322 kts | 295° |
| 2026-04-25 09:22 | 47.91163 | 10.80447 | 13314 ft | 320 kts | 294° |
| 2026-04-25 09:22 | 47.92085 | 10.77457 | 12534 ft | 315 kts | 294° |
| 2026-04-25 09:22 | 47.92993 | 10.74504 | 11777 ft | 311 kts | 294° |
| 2026-04-25 09:22 | 47.93890 | 10.71589 | 11037 ft | 308 kts | 294° |
| 2026-04-25 09:23 | 47.94778 | 10.68701 | 10453 ft | 301 kts | 294° |
| 2026-04-25 09:23 | 47.95634 | 10.65908 | 9959 ft | 291 kts | 294° |
| 2026-04-25 09:23 | 47.96465 | 10.63198 | 9443 ft | 283 kts | 294° |
| 2026-04-25 09:23 | 47.97278 | 10.60554 | 8911 ft | 277 kts | 294° |
| 2026-04-25 09:24 | 47.98071 | 10.57971 | 8404 ft | 271 kts | 294° |
| 2026-04-25 09:24 | 47.98904 | 10.55534 | 7844 ft | 258 kts | 303° |
| 2026-04-25 09:24 | 48.00085 | 10.53606 | 7316 ft | 247 kts | 319° |
| 2026-04-25 09:24 | 48.01491 | 10.52205 | 6813 ft | 238 kts | 328° |
| 2026-04-25 09:25 | 48.02911 | 10.51049 | 6334 ft | 229 kts | 329° |
| 2026-04-25 09:25 | 48.04279 | 10.49918 | 5828 ft | 221 kts | 324° |
| 2026-04-25 09:25 | 48.05431 | 10.48455 | 5317 ft | 214 kts | 307° |
| 2026-04-25 09:25 | 48.06137 | 10.46623 | 5019 ft | 201 kts | 287° |
| 2026-04-25 09:26 | 48.06350 | 10.44602 | 4867 ft | 195 kts | 268° |
| 2026-04-25 09:26 | 48.06131 | 10.42643 | 4705 ft | 187 kts | 254° |
| 2026-04-25 09:26 | 48.05612 | 10.40877 | 4464 ft | 186 kts | 241° |
| 2026-04-25 09:26 | 48.04914 | 10.39247 | 4122 ft | 185 kts | 238° |
| 2026-04-25 09:27 | 48.04268 | 10.37648 | 3870 ft | 174 kts | 241° |
| 2026-04-25 09:27 | 48.03713 | 10.36190 | 3756 ft | 149 kts | 240° |
| 2026-04-25 09:27 | 48.03194 | 10.34899 | 3578 ft | 144 kts | 240° |
| 2026-04-25 09:27 | 48.02697 | 10.33583 | 3363 ft | 147 kts | 241° |
| 2026-04-25 09:28 | 48.02177 | 10.32253 | 3130 ft | 148 kts | 239° |
| 2026-04-25 09:28 | 48.01650 | 10.30934 | 2922 ft | 148 kts | 240° |
| 2026-04-25 09:28 | 48.01135 | 10.29640 | 2768 ft | 143 kts | 240° |
| 2026-04-25 09:28 | 48.00627 | 10.28347 | 2533 ft | 144 kts | 240° |
| 2026-04-25 09:29 | 48.00120 | 10.27071 | 2343 ft | 141 kts | 240° |
| 2026-04-25 09:29 | 47.99624 | 10.25814 | 2146 ft | 140 kts | 240° |
| 2026-04-25 09:29 | 47.99145 | 10.24613 | 2067 ft | 121 kts | 239° |
| 2026-04-25 09:29 | 47.98803 | 10.23754 | 2077 ft | 76 kts | 239° |
| 2026-04-25 09:30 | 47.98583 | 10.23202 | 2080 ft | 52 kts | 239° |
| 2026-04-25 09:30 | 47.98440 | 10.22838 | 2084 ft | 37 kts | 239° |
| 2026-04-25 09:30 | 47.98358 | 10.22633 | 2087 ft | 11 kts | 239° |
| 2026-04-25 09:30 | 47.98385 | 10.22545 | 2088 ft | 11 kts | 327° |
| 2026-04-25 09:31 | 47.98454 | 10.22585 | 2085 ft | 14 kts | 64° |
| 2026-04-25 09:31 | 47.98528 | 10.22711 | 2083 ft | 18 kts | 21° |
| 2026-04-25 09:31 | 47.98666 | 10.22724 | 2079 ft | 13 kts | 4° |
| 2026-04-25 09:31 | 47.98703 | 10.22813 | 2075 ft | 13 kts | 81° |
| 2026-04-25 09:32 | 47.98733 | 10.22937 | 2078 ft | 12 kts | 44° |
| 2026-04-25 09:32 | 47.98772 | 10.23044 | 2079 ft | 12 kts | 72° |
| 2026-04-25 09:32 | 47.98801 | 10.23175 | 2080 ft | 14 kts | 69° |
| 2026-04-25 09:32 | 47.98850 | 10.23301 | 2080 ft | 11 kts | 19° |
| 2026-04-25 09:33 | 47.98887 | 10.23322 | 2076 ft | 4 kts | 54° |
| 2026-04-25 09:33 | 47.98891 | 10.23330 | 2078 ft | 0 kts | 50° |